2°C Temp
2°C Dewpoint
% Humidity
Temperature
2 KM/H
1 MPH
1 KTS
330°
North North
West

Wind Speed
Foggy
Conditions
Pressure 1046.92 (hPa) - 30.92 (in)
Visibility 0.1 (mi) - 0.2 (km)

Current Conditions
EHBK
Location 6km (3.2mi)
Metar :EHBK 200725Z AUTO 33001KT 0200 R21/0275N FG VV000 02/02 Q1047 NOSIG
Mon 20th January 08:25 am

Airport
  Metar Aviation API Data Provided by https://www.checkwx.com/ PHP scripts by weather34.com ©2020